LGRX/GPA METAR and TAF weather

Enter ICAO airport designator
Station Type Date Time Source
LGRX METAR 2021/08/05 04:20 UTC NOAA

LGRX 050420Z 00000KT CAVOK 22/15 Q1012


Station Type Date Time Source
LGRX Decoded METAR 2021/08/05 04:20 UTC NOAA

Araxos Airport , Greece (LGRX) 38-09N 021-25E 12M
Aug 05, 2021 - 12:20 AM EDT / 2021.08.05 0420 UTC
Wind: Calm:0
Visibility: greater than 7 mile(s):0
Temperature: 71 F (22 C)
Dew Point: 59 F (15 C)
Relative Humidity: 64%
Pressure (altimeter): 29.88 in. Hg (1012 hPa)
ob: LGRX 050420Z 00000KT CAVOK 22/15 Q1012
cycle: 4

Station Type Date Time Source
LGRX TAF 2020/03/18 09:39 UTC NOAA

TAF LGRX 180800Z 1809/1821 33006KT 9999 FEW030
BECMG 1816/1818 07010KT

Example: see airport list